sensor_id;sensor_type;location;lat;lon;timestamp;P1;durP1;ratioP1;P2;durP2;ratioP2
17441;SDS011;8838;50.144;8.176;2023-12-20T00:01:47;0.60;;;0.60;;
17441;SDS011;8838;50.144;8.176;2023-12-20T00:04:15;1.00;;;0.73;;
17441;SDS011;8838;50.144;8.176;2023-12-20T00:06:44;1.17;;;0.67;;
17441;SDS011;8838;50.144;8.176;2023-12-20T00:09:11;0.60;;;0.60;;
17441;SDS011;8838;50.144;8.176;2023-12-20T00:11:41;0.83;;;0.60;;
17441;SDS011;8838;50.144;8.176;2023-12-20T00:14:09;0.50;;;0.50;;
17441;SDS011;8838;50.144;8.176;2023-12-20T00:16:36;0.83;;;0.60;;
17441;SDS011;8838;50.144;8.176;2023-12-20T00:19:05;0.60;;;0.60;;
17441;SDS011;8838;50.144;8.176;2023-12-20T00:21:33;0.50;;;0.50;;
17441;SDS011;8838;50.144;8.176;2023-12-20T00:24:00;0.50;;;0.50;;
17441;SDS011;8838;50.144;8.176;2023-12-20T00:26:29;0.50;;;0.50;;
17441;SDS011;8838;50.144;8.176;2023-12-20T00:28:59;0.50;;;0.50;;
17441;SDS011;8838;50.144;8.176;2023-12-20T00:31:26;1.47;;;0.60;;
17441;SDS011;8838;50.144;8.176;2023-12-20T00:33:54;0.60;;;0.60;;
17441;SDS011;8838;50.144;8.176;2023-12-20T00:36:22;0.60;;;0.50;;
17441;SDS011;8838;50.144;8.176;2023-12-20T00:38:49;0.60;;;0.60;;
17441;SDS011;8838;50.144;8.176;2023-12-20T00:41:17;0.57;;;0.50;;
17441;SDS011;8838;50.144;8.176;2023-12-20T00:43:44;0.90;;;0.63;;
17441;SDS011;8838;50.144;8.176;2023-12-20T00:46:13;0.60;;;0.60;;
17441;SDS011;8838;50.144;8.176;2023-12-20T00:48:41;0.50;;;0.50;;
17441;SDS011;8838;50.144;8.176;2023-12-20T00:51:10;0.73;;;0.50;;
17441;SDS011;8838;50.144;8.176;2023-12-20T00:53:38;0.50;;;0.50;;
17441;SDS011;8838;50.144;8.176;2023-12-20T00:56:06;1.87;;;0.50;;
17441;SDS011;8838;50.144;8.176;2023-12-20T00:58:34;1.60;;;0.50;;
17441;SDS011;8838;50.144;8.176;2023-12-20T01:01:02;0.50;;;0.50;;
17441;SDS011;8838;50.144;8.176;2023-12-20T01:03:32;0.83;;;0.47;;
17441;SDS011;8838;50.144;8.176;2023-12-20T01:05:59;0.50;;;0.50;;
17441;SDS011;8838;50.144;8.176;2023-12-20T01:08:29;1.37;;;0.50;;
17441;SDS011;8838;50.144;8.176;2023-12-20T01:11:00;0.80;;;0.50;;
17441;SDS011;8838;50.144;8.176;2023-12-20T01:13:30;0.63;;;0.50;;
17441;SDS011;8838;50.144;8.176;2023-12-20T01:15:58;0.43;;;0.40;;
17441;SDS011;8838;50.144;8.176;2023-12-20T01:18:26;0.57;;;0.57;;
17441;SDS011;8838;50.144;8.176;2023-12-20T01:20:55;0.57;;;0.57;;
17441;SDS011;8838;50.144;8.176;2023-12-20T01:23:23;0.60;;;0.60;;
17441;SDS011;8838;50.144;8.176;2023-12-20T01:25:52;2.07;;;0.60;;
17441;SDS011;8838;50.144;8.176;2023-12-20T01:28:20;0.50;;;0.50;;
17441;SDS011;8838;50.144;8.176;2023-12-20T01:30:48;0.50;;;0.50;;
17441;SDS011;8838;50.144;8.176;2023-12-20T01:33:15;0.90;;;0.50;;
17441;SDS011;8838;50.144;8.176;2023-12-20T01:35:45;0.87;;;0.50;;
17441;SDS011;8838;50.144;8.176;2023-12-20T01:38:14;0.50;;;0.50;;
17441;SDS011;8838;50.144;8.176;2023-12-20T01:40:43;0.90;;;0.60;;
17441;SDS011;8838;50.144;8.176;2023-12-20T01:43:11;0.50;;;0.50;;
17441;SDS011;8838;50.144;8.176;2023-12-20T01:45:39;0.50;;;0.50;;
17441;SDS011;8838;50.144;8.176;2023-12-20T01:48:08;0.90;;;0.70;;
17441;SDS011;8838;50.144;8.176;2023-12-20T01:50:36;0.50;;;0.50;;
17441;SDS011;8838;50.144;8.176;2023-12-20T01:53:05;0.80;;;0.60;;
17441;SDS011;8838;50.144;8.176;2023-12-20T01:55:38;0.87;;;0.70;;
17441;SDS011;8838;50.144;8.176;2023-12-20T01:58:07;1.23;;;0.60;;
17441;SDS011;8838;50.144;8.176;2023-12-20T02:00:36;1.60;;;0.93;;
17441;SDS011;8838;50.144;8.176;2023-12-20T02:03:04;0.80;;;0.80;;
17441;SDS011;8838;50.144;8.176;2023-12-20T02:05:33;1.33;;;1.10;;
17441;SDS011;8838;50.144;8.176;2023-12-20T02:08:02;1.73;;;0.93;;
17441;SDS011;8838;50.144;8.176;2023-12-20T02:10:30;1.10;;;1.00;;
17441;SDS011;8838;50.144;8.176;2023-12-20T02:13:00;1.20;;;1.03;;
17441;SDS011;8838;50.144;8.176;2023-12-20T02:15:28;0.97;;;0.90;;
17441;SDS011;8838;50.144;8.176;2023-12-20T02:17:55;1.13;;;1.03;;
17441;SDS011;8838;50.144;8.176;2023-12-20T02:20:23;1.77;;;0.90;;
17441;SDS011;8838;50.144;8.176;2023-12-20T02:22:52;0.97;;;0.97;;
17441;SDS011;8838;50.144;8.176;2023-12-20T02:25:20;1.23;;;1.13;;
17441;SDS011;8838;50.144;8.176;2023-12-20T02:27:48;1.10;;;1.00;;
17441;SDS011;8838;50.144;8.176;2023-12-20T02:30:16;1.20;;;1.10;;
17441;SDS011;8838;50.144;8.176;2023-12-20T02:32:43;1.20;;;1.10;;
17441;SDS011;8838;50.144;8.176;2023-12-20T02:35:11;2.10;;;1.50;;
17441;SDS011;8838;50.144;8.176;2023-12-20T02:37:39;1.73;;;1.03;;
17441;SDS011;8838;50.144;8.176;2023-12-20T02:40:09;2.00;;;1.37;;
17441;SDS011;8838;50.144;8.176;2023-12-20T02:42:37;1.47;;;1.37;;
17441;SDS011;8838;50.144;8.176;2023-12-20T02:45:05;1.50;;;1.40;;
17441;SDS011;8838;50.144;8.176;2023-12-20T02:47:34;1.97;;;1.30;;
17441;SDS011;8838;50.144;8.176;2023-12-20T02:50:01;1.70;;;1.33;;
17441;SDS011;8838;50.144;8.176;2023-12-20T02:52:29;1.70;;;1.33;;
17441;SDS011;8838;50.144;8.176;2023-12-20T02:54:59;1.43;;;1.33;;
17441;SDS011;8838;50.144;8.176;2023-12-20T02:57:28;1.50;;;1.40;;
17441;SDS011;8838;50.144;8.176;2023-12-20T02:59:57;2.17;;;1.37;;
17441;SDS011;8838;50.144;8.176;2023-12-20T03:02:24;2.03;;;1.83;;
17441;SDS011;8838;50.144;8.176;2023-12-20T03:04:52;2.80;;;1.60;;
17441;SDS011;8838;50.144;8.176;2023-12-20T03:07:20;2.10;;;1.70;;
17441;SDS011;8838;50.144;8.176;2023-12-20T03:09:49;1.80;;;1.70;;
17441;SDS011;8838;50.144;8.176;2023-12-20T03:12:17;2.30;;;1.90;;
17441;SDS011;8838;50.144;8.176;2023-12-20T03:14:46;4.30;;;2.00;;
17441;SDS011;8838;50.144;8.176;2023-12-20T03:17:14;1.90;;;1.70;;
17441;SDS011;8838;50.144;8.176;2023-12-20T03:19:41;1.90;;;1.80;;
17441;SDS011;8838;50.144;8.176;2023-12-20T03:22:09;2.30;;;1.90;;
17441;SDS011;8838;50.144;8.176;2023-12-20T03:24:37;2.70;;;1.80;;
17441;SDS011;8838;50.144;8.176;2023-12-20T03:27:07;9.70;;;2.47;;
17441;SDS011;8838;50.144;8.176;2023-12-20T03:29:35;1.63;;;1.53;;
17441;SDS011;8838;50.144;8.176;2023-12-20T03:32:06;1.50;;;1.20;;
17441;SDS011;8838;50.144;8.176;2023-12-20T03:34:36;1.77;;;1.47;;
17441;SDS011;8838;50.144;8.176;2023-12-20T03:37:03;1.50;;;1.40;;
17441;SDS011;8838;50.144;8.176;2023-12-20T03:39:31;1.60;;;1.50;;
17441;SDS011;8838;50.144;8.176;2023-12-20T03:41:58;1.40;;;1.30;;
17441;SDS011;8838;50.144;8.176;2023-12-20T03:44:26;2.10;;;1.30;;
17441;SDS011;8838;50.144;8.176;2023-12-20T03:46:54;4.50;;;1.50;;
17441;SDS011;8838;50.144;8.176;2023-12-20T03:49:24;2.37;;;1.77;;
17441;SDS011;8838;50.144;8.176;2023-12-20T03:51:53;2.93;;;2.00;;
17441;SDS011;8838;50.144;8.176;2023-12-20T03:54:23;5.10;;;3.83;;
17441;SDS011;8838;50.144;8.176;2023-12-20T03:56:52;4.80;;;3.93;;
17441;SDS011;8838;50.144;8.176;2023-12-20T03:59:20;6.07;;;4.50;;
17441;SDS011;8838;50.144;8.176;2023-12-20T04:01:49;5.10;;;4.60;;
17441;SDS011;8838;50.144;8.176;2023-12-20T04:04:17;6.60;;;5.13;;
17441;SDS011;8838;50.144;8.176;2023-12-20T04:06:47;6.80;;;4.73;;
17441;SDS011;8838;50.144;8.176;2023-12-20T04:09:14;6.40;;;4.30;;
17441;SDS011;8838;50.144;8.176;2023-12-20T04:11:42;7.73;;;4.90;;
17441;SDS011;8838;50.144;8.176;2023-12-20T04:14:10;6.27;;;4.70;;
17441;SDS011;8838;50.144;8.176;2023-12-20T04:16:37;9.30;;;5.23;;
17441;SDS011;8838;50.144;8.176;2023-12-20T04:19:05;9.20;;;5.67;;
17441;SDS011;8838;50.144;8.176;2023-12-20T04:21:33;7.03;;;4.83;;
17441;SDS011;8838;50.144;8.176;2023-12-20T04:24:03;8.17;;;5.70;;
17441;SDS011;8838;50.144;8.176;2023-12-20T04:26:31;9.07;;;4.57;;
17441;SDS011;8838;50.144;8.176;2023-12-20T04:28:59;8.23;;;4.20;;
17441;SDS011;8838;50.144;8.176;2023-12-20T04:31:27;7.40;;;3.60;;
17441;SDS011;8838;50.144;8.176;2023-12-20T04:33:56;9.07;;;3.20;;
17441;SDS011;8838;50.144;8.176;2023-12-20T04:36:24;7.87;;;2.93;;
17441;SDS011;8838;50.144;8.176;2023-12-20T04:38:55;6.20;;;2.90;;
17441;SDS011;8838;50.144;8.176;2023-12-20T04:41:26;12.07;;;2.30;;
17441;SDS011;8838;50.144;8.176;2023-12-20T04:43:54;8.47;;;2.40;;
17441;SDS011;8838;50.144;8.176;2023-12-20T04:46:21;7.93;;;2.00;;
17441;SDS011;8838;50.144;8.176;2023-12-20T04:48:49;9.30;;;2.20;;
17441;SDS011;8838;50.144;8.176;2023-12-20T04:51:16;11.23;;;2.20;;
17441;SDS011;8838;50.144;8.176;2023-12-20T04:53:45;10.03;;;2.00;;
17441;SDS011;8838;50.144;8.176;2023-12-20T04:56:12;7.50;;;2.07;;
17441;SDS011;8838;50.144;8.176;2023-12-20T04:58:42;9.90;;;2.00;;
17441;SDS011;8838;50.144;8.176;2023-12-20T05:01:12;7.10;;;1.73;;
17441;SDS011;8838;50.144;8.176;2023-12-20T05:03:40;9.83;;;2.10;;
17441;SDS011;8838;50.144;8.176;2023-12-20T05:06:08;11.50;;;2.10;;
17441;SDS011;8838;50.144;8.176;2023-12-20T05:08:36;7.53;;;2.03;;
17441;SDS011;8838;50.144;8.176;2023-12-20T05:11:06;10.87;;;2.10;;
17441;SDS011;8838;50.144;8.176;2023-12-20T05:13:34;11.93;;;2.20;;
17441;SDS011;8838;50.144;8.176;2023-12-20T05:16:07;11.20;;;2.40;;
17441;SDS011;8838;50.144;8.176;2023-12-20T05:18:35;12.37;;;2.10;;
17441;SDS011;8838;50.144;8.176;2023-12-20T05:21:04;11.87;;;1.93;;
17441;SDS011;8838;50.144;8.176;2023-12-20T05:23:32;10.83;;;2.50;;
17441;SDS011;8838;50.144;8.176;2023-12-20T05:26:01;13.43;;;2.90;;
17441;SDS011;8838;50.144;8.176;2023-12-20T05:28:29;11.80;;;2.00;;
17441;SDS011;8838;50.144;8.176;2023-12-20T05:30:56;6.30;;;1.93;;
17441;SDS011;8838;50.144;8.176;2023-12-20T05:33:29;8.87;;;2.20;;
17441;SDS011;8838;50.144;8.176;2023-12-20T05:35:56;6.97;;;2.10;;
17441;SDS011;8838;50.144;8.176;2023-12-20T05:38:24;8.50;;;1.80;;
17441;SDS011;8838;50.144;8.176;2023-12-20T05:40:53;12.77;;;2.27;;
17441;SDS011;8838;50.144;8.176;2023-12-20T05:43:21;11.80;;;2.60;;
17441;SDS011;8838;50.144;8.176;2023-12-20T05:45:50;7.97;;;2.60;;
17441;SDS011;8838;50.144;8.176;2023-12-20T05:48:19;10.47;;;2.30;;
17441;SDS011;8838;50.144;8.176;2023-12-20T05:50:49;16.77;;;3.67;;
17441;SDS011;8838;50.144;8.176;2023-12-20T05:53:17;10.43;;;2.80;;
17441;SDS011;8838;50.144;8.176;2023-12-20T05:55:45;10.23;;;2.60;;
17441;SDS011;8838;50.144;8.176;2023-12-20T05:58:13;16.70;;;2.83;;
17441;SDS011;8838;50.144;8.176;2023-12-20T06:00:44;7.23;;;2.50;;
17441;SDS011;8838;50.144;8.176;2023-12-20T06:03:11;11.73;;;2.83;;
17441;SDS011;8838;50.144;8.176;2023-12-20T06:05:39;10.73;;;2.87;;
17441;SDS011;8838;50.144;8.176;2023-12-20T06:08:08;15.20;;;3.27;;
17441;SDS011;8838;50.144;8.176;2023-12-20T06:10:35;14.50;;;3.23;;
17441;SDS011;8838;50.144;8.176;2023-12-20T06:13:03;20.93;;;3.90;;
17441;SDS011;8838;50.144;8.176;2023-12-20T06:15:31;14.20;;;3.03;;
17441;SDS011;8838;50.144;8.176;2023-12-20T06:17:59;14.77;;;3.10;;
17441;SDS011;8838;50.144;8.176;2023-12-20T06:20:28;9.07;;;2.50;;
17441;SDS011;8838;50.144;8.176;2023-12-20T06:22:57;13.40;;;3.07;;
17441;SDS011;8838;50.144;8.176;2023-12-20T06:25:27;10.10;;;2.60;;
17441;SDS011;8838;50.144;8.176;2023-12-20T06:27:55;7.10;;;2.30;;
17441;SDS011;8838;50.144;8.176;2023-12-20T06:30:25;7.00;;;2.77;;
17441;SDS011;8838;50.144;8.176;2023-12-20T06:32:57;7.50;;;3.00;;
17441;SDS011;8838;50.144;8.176;2023-12-20T06:35:25;11.87;;;2.80;;
17441;SDS011;8838;50.144;8.176;2023-12-20T06:37:55;11.50;;;2.90;;
17441;SDS011;8838;50.144;8.176;2023-12-20T06:40:22;9.77;;;2.90;;
17441;SDS011;8838;50.144;8.176;2023-12-20T06:42:52;7.97;;;2.50;;
17441;SDS011;8838;50.144;8.176;2023-12-20T06:45:24;7.90;;;2.20;;
17441;SDS011;8838;50.144;8.176;2023-12-20T06:47:52;8.50;;;2.80;;
17441;SDS011;8838;50.144;8.176;2023-12-20T06:50:20;12.37;;;3.13;;
17441;SDS011;8838;50.144;8.176;2023-12-20T06:52:47;12.60;;;2.67;;
17441;SDS011;8838;50.144;8.176;2023-12-20T06:55:15;9.23;;;2.57;;
17441;SDS011;8838;50.144;8.176;2023-12-20T06:57:43;9.17;;;2.30;;
17441;SDS011;8838;50.144;8.176;2023-12-20T07:00:14;7.77;;;2.60;;
17441;SDS011;8838;50.144;8.176;2023-12-20T07:02:43;14.83;;;2.63;;
17441;SDS011;8838;50.144;8.176;2023-12-20T07:05:12;11.77;;;2.63;;
17441;SDS011;8838;50.144;8.176;2023-12-20T07:07:45;17.30;;;3.20;;
17441;SDS011;8838;50.144;8.176;2023-12-20T07:10:14;12.13;;;2.50;;
17441;SDS011;8838;50.144;8.176;2023-12-20T07:12:42;11.93;;;2.70;;
17441;SDS011;8838;50.144;8.176;2023-12-20T07:15:10;11.67;;;2.40;;
17441;SDS011;8838;50.144;8.176;2023-12-20T07:17:39;14.80;;;3.60;;
17441;SDS011;8838;50.144;8.176;2023-12-20T07:20:07;13.70;;;2.90;;
17441;SDS011;8838;50.144;8.176;2023-12-20T07:22:36;13.13;;;2.80;;
17441;SDS011;8838;50.144;8.176;2023-12-20T07:25:04;7.90;;;2.20;;
17441;SDS011;8838;50.144;8.176;2023-12-20T07:27:33;14.93;;;2.77;;
17441;SDS011;8838;50.144;8.176;2023-12-20T07:30:00;9.10;;;2.77;;
17441;SDS011;8838;50.144;8.176;2023-12-20T07:32:28;11.93;;;2.70;;
17441;SDS011;8838;50.144;8.176;2023-12-20T07:34:58;11.30;;;2.70;;
17441;SDS011;8838;50.144;8.176;2023-12-20T07:37:26;10.03;;;2.47;;
17441;SDS011;8838;50.144;8.176;2023-12-20T07:39:53;9.17;;;2.20;;
17441;SDS011;8838;50.144;8.176;2023-12-20T07:42:21;7.33;;;2.20;;
17441;SDS011;8838;50.144;8.176;2023-12-20T07:44:49;12.37;;;2.70;;
17441;SDS011;8838;50.144;8.176;2023-12-20T07:47:20;9.77;;;1.93;;
17441;SDS011;8838;50.144;8.176;2023-12-20T07:49:47;9.47;;;2.17;;
17441;SDS011;8838;50.144;8.176;2023-12-20T07:52:19;7.23;;;2.53;;
17441;SDS011;8838;50.144;8.176;2023-12-20T07:54:48;11.17;;;2.47;;
17441;SDS011;8838;50.144;8.176;2023-12-20T07:57:15;11.80;;;2.63;;
17441;SDS011;8838;50.144;8.176;2023-12-20T07:59:43;10.60;;;2.07;;
17441;SDS011;8838;50.144;8.176;2023-12-20T08:02:10;12.03;;;1.97;;
17441;SDS011;8838;50.144;8.176;2023-12-20T08:04:38;9.70;;;2.43;;
17441;SDS011;8838;50.144;8.176;2023-12-20T08:07:06;15.10;;;2.60;;
17441;SDS011;8838;50.144;8.176;2023-12-20T08:09:36;13.63;;;2.27;;
17441;SDS011;8838;50.144;8.176;2023-12-20T08:12:03;8.97;;;2.40;;
17441;SDS011;8838;50.144;8.176;2023-12-20T08:14:34;10.47;;;2.37;;
17441;SDS011;8838;50.144;8.176;2023-12-20T08:17:02;12.73;;;2.37;;
17441;SDS011;8838;50.144;8.176;2023-12-20T08:19:29;11.33;;;2.63;;
17441;SDS011;8838;50.144;8.176;2023-12-20T08:21:56;7.20;;;2.20;;
17441;SDS011;8838;50.144;8.176;2023-12-20T08:24:24;11.50;;;2.37;;
17441;SDS011;8838;50.144;8.176;2023-12-20T08:26:53;12.70;;;2.23;;
17441;SDS011;8838;50.144;8.176;2023-12-20T08:29:21;11.13;;;2.30;;
17441;SDS011;8838;50.144;8.176;2023-12-20T08:31:51;12.00;;;3.20;;
17441;SDS011;8838;50.144;8.176;2023-12-20T08:34:19;11.87;;;2.63;;
17441;SDS011;8838;50.144;8.176;2023-12-20T08:36:46;8.83;;;2.20;;
17441;SDS011;8838;50.144;8.176;2023-12-20T08:39:14;9.13;;;2.60;;
17441;SDS011;8838;50.144;8.176;2023-12-20T08:41:41;11.77;;;2.60;;
17441;SDS011;8838;50.144;8.176;2023-12-20T08:44:10;11.37;;;2.60;;
17441;SDS011;8838;50.144;8.176;2023-12-20T08:46:38;10.43;;;2.43;;
17441;SDS011;8838;50.144;8.176;2023-12-20T08:49:06;12.83;;;2.60;;
17441;SDS011;8838;50.144;8.176;2023-12-20T08:51:35;10.60;;;2.27;;
17441;SDS011;8838;50.144;8.176;2023-12-20T08:54:05;14.40;;;3.10;;
17441;SDS011;8838;50.144;8.176;2023-12-20T08:56:34;13.13;;;2.47;;
17441;SDS011;8838;50.144;8.176;2023-12-20T08:59:01;12.43;;;2.90;;
17441;SDS011;8838;50.144;8.176;2023-12-20T09:01:30;10.50;;;2.50;;
17441;SDS011;8838;50.144;8.176;2023-12-20T09:03:58;13.60;;;2.97;;
17441;SDS011;8838;50.144;8.176;2023-12-20T09:06:25;13.10;;;2.63;;
17441;SDS011;8838;50.144;8.176;2023-12-20T09:08:52;16.17;;;2.77;;
17441;SDS011;8838;50.144;8.176;2023-12-20T09:11:19;7.70;;;2.47;;
17441;SDS011;8838;50.144;8.176;2023-12-20T09:13:47;10.10;;;2.53;;
17441;SDS011;8838;50.144;8.176;2023-12-20T09:16:14;14.00;;;3.10;;
17441;SDS011;8838;50.144;8.176;2023-12-20T09:18:44;9.50;;;2.67;;
17441;SDS011;8838;50.144;8.176;2023-12-20T09:21:12;9.93;;;2.73;;
17441;SDS011;8838;50.144;8.176;2023-12-20T09:23:41;10.50;;;2.83;;
17441;SDS011;8838;50.144;8.176;2023-12-20T09:26:13;10.40;;;2.73;;
17441;SDS011;8838;50.144;8.176;2023-12-20T09:28:41;9.87;;;2.60;;
17441;SDS011;8838;50.144;8.176;2023-12-20T09:31:08;11.40;;;2.60;;
17441;SDS011;8838;50.144;8.176;2023-12-20T09:33:35;7.00;;;2.07;;
17441;SDS011;8838;50.144;8.176;2023-12-20T09:36:05;11.17;;;2.90;;
17441;SDS011;8838;50.144;8.176;2023-12-20T09:38:33;12.90;;;3.00;;
17441;SDS011;8838;50.144;8.176;2023-12-20T09:41:01;10.47;;;2.50;;
17441;SDS011;8838;50.144;8.176;2023-12-20T09:43:29;8.60;;;2.47;;
17441;SDS011;8838;50.144;8.176;2023-12-20T09:45:59;10.70;;;2.60;;
17441;SDS011;8838;50.144;8.176;2023-12-20T09:48:29;12.07;;;2.80;;
17441;SDS011;8838;50.144;8.176;2023-12-20T09:50:58;12.13;;;2.50;;
17441;SDS011;8838;50.144;8.176;2023-12-20T09:53:27;13.57;;;2.90;;
17441;SDS011;8838;50.144;8.176;2023-12-20T09:55:57;12.60;;;3.03;;
17441;SDS011;8838;50.144;8.176;2023-12-20T09:58:26;10.10;;;2.60;;
17441;SDS011;8838;50.144;8.176;2023-12-20T10:00:54;11.20;;;2.70;;
17441;SDS011;8838;50.144;8.176;2023-12-20T10:03:23;11.23;;;2.60;;
17441;SDS011;8838;50.144;8.176;2023-12-20T10:05:52;7.23;;;2.40;;
17441;SDS011;8838;50.144;8.176;2023-12-20T10:08:23;10.73;;;2.50;;
17441;SDS011;8838;50.144;8.176;2023-12-20T10:10:53;8.33;;;2.67;;
17441;SDS011;8838;50.144;8.176;2023-12-20T10:13:22;9.90;;;2.70;;
17441;SDS011;8838;50.144;8.176;2023-12-20T10:15:50;7.73;;;2.00;;
17441;SDS011;8838;50.144;8.176;2023-12-20T10:18:18;11.47;;;2.80;;
17441;SDS011;8838;50.144;8.176;2023-12-20T10:20:48;14.03;;;3.50;;
17441;SDS011;8838;50.144;8.176;2023-12-20T10:23:15;10.07;;;2.60;;
17441;SDS011;8838;50.144;8.176;2023-12-20T10:25:50;10.80;;;2.20;;
17441;SDS011;8838;50.144;8.176;2023-12-20T10:28:24;8.67;;;2.40;;
17441;SDS011;8838;50.144;8.176;2023-12-20T10:30:53;10.00;;;2.57;;
17441;SDS011;8838;50.144;8.176;2023-12-20T10:33:25;10.73;;;2.60;;
17441;SDS011;8838;50.144;8.176;2023-12-20T10:35:54;11.47;;;2.47;;
17441;SDS011;8838;50.144;8.176;2023-12-20T10:38:22;10.73;;;2.40;;
17441;SDS011;8838;50.144;8.176;2023-12-20T10:40:50;8.37;;;2.50;;
17441;SDS011;8838;50.144;8.176;2023-12-20T10:43:22;15.10;;;2.57;;
17441;SDS011;8838;50.144;8.176;2023-12-20T10:45:52;9.80;;;2.40;;
17441;SDS011;8838;50.144;8.176;2023-12-20T10:48:20;8.33;;;1.77;;
17441;SDS011;8838;50.144;8.176;2023-12-20T10:50:54;7.50;;;1.80;;
17441;SDS011;8838;50.144;8.176;2023-12-20T10:53:25;12.20;;;2.40;;
17441;SDS011;8838;50.144;8.176;2023-12-20T10:56:01;10.97;;;2.13;;
17441;SDS011;8838;50.144;8.176;2023-12-20T10:58:32;12.23;;;2.13;;
17441;SDS011;8838;50.144;8.176;2023-12-20T11:01:02;9.43;;;2.00;;
17441;SDS011;8838;50.144;8.176;2023-12-20T11:03:31;10.13;;;1.90;;
17441;SDS011;8838;50.144;8.176;2023-12-20T11:06:03;9.17;;;1.97;;
17441;SDS011;8838;50.144;8.176;2023-12-20T11:08:35;6.80;;;2.07;;
17441;SDS011;8838;50.144;8.176;2023-12-20T11:11:09;9.10;;;2.70;;
17441;SDS011;8838;50.144;8.176;2023-12-20T11:13:44;9.93;;;2.00;;
17441;SDS011;8838;50.144;8.176;2023-12-20T11:16:21;14.03;;;2.50;;
17441;SDS011;8838;50.144;8.176;2023-12-20T11:18:49;7.50;;;2.27;;
17441;SDS011;8838;50.144;8.176;2023-12-20T11:21:18;6.73;;;1.87;;
17441;SDS011;8838;50.144;8.176;2023-12-20T11:23:45;7.13;;;2.23;;
17441;SDS011;8838;50.144;8.176;2023-12-20T11:26:15;10.10;;;2.33;;
17441;SDS011;8838;50.144;8.176;2023-12-20T11:28:45;9.70;;;2.30;;
17441;SDS011;8838;50.144;8.176;2023-12-20T11:31:13;5.93;;;2.07;;
17441;SDS011;8838;50.144;8.176;2023-12-20T11:33:44;8.17;;;2.53;;
17441;SDS011;8838;50.144;8.176;2023-12-20T11:36:14;8.33;;;2.63;;
17441;SDS011;8838;50.144;8.176;2023-12-20T11:38:53;11.93;;;2.33;;
17441;SDS011;8838;50.144;8.176;2023-12-20T11:41:23;14.90;;;2.30;;
17441;SDS011;8838;50.144;8.176;2023-12-20T11:43:54;5.90;;;1.83;;
17441;SDS011;8838;50.144;8.176;2023-12-20T11:46:26;6.03;;;2.10;;
17441;SDS011;8838;50.144;8.176;2023-12-20T11:48:54;10.80;;;2.13;;
17441;SDS011;8838;50.144;8.176;2023-12-20T11:51:24;5.67;;;1.77;;
17441;SDS011;8838;50.144;8.176;2023-12-20T11:53:52;7.10;;;2.10;;
17441;SDS011;8838;50.144;8.176;2023-12-20T11:56:19;8.70;;;1.83;;
17441;SDS011;8838;50.144;8.176;2023-12-20T11:58:48;7.60;;;1.90;;
17441;SDS011;8838;50.144;8.176;2023-12-20T12:01:17;10.10;;;2.33;;
17441;SDS011;8838;50.144;8.176;2023-12-20T12:03:47;7.90;;;2.03;;
17441;SDS011;8838;50.144;8.176;2023-12-20T12:06:14;7.67;;;2.20;;
17441;SDS011;8838;50.144;8.176;2023-12-20T12:08:42;10.43;;;2.00;;
17441;SDS011;8838;50.144;8.176;2023-12-20T12:11:09;10.23;;;2.10;;
17441;SDS011;8838;50.144;8.176;2023-12-20T12:13:37;9.67;;;2.43;;
17441;SDS011;8838;50.144;8.176;2023-12-20T12:16:05;8.90;;;1.87;;
17441;SDS011;8838;50.144;8.176;2023-12-20T12:18:34;5.03;;;1.70;;
17441;SDS011;8838;50.144;8.176;2023-12-20T12:21:02;6.50;;;2.33;;
17441;SDS011;8838;50.144;8.176;2023-12-20T12:23:30;8.03;;;1.83;;
17441;SDS011;8838;50.144;8.176;2023-12-20T12:25:57;9.97;;;2.10;;
17441;SDS011;8838;50.144;8.176;2023-12-20T12:28:25;7.57;;;2.50;;
17441;SDS011;8838;50.144;8.176;2023-12-20T12:30:57;7.63;;;2.30;;
17441;SDS011;8838;50.144;8.176;2023-12-20T12:33:25;9.23;;;2.00;;
17441;SDS011;8838;50.144;8.176;2023-12-20T12:35:54;11.50;;;2.00;;
17441;SDS011;8838;50.144;8.176;2023-12-20T12:38:21;11.60;;;2.10;;
17441;SDS011;8838;50.144;8.176;2023-12-20T12:40:50;7.77;;;1.73;;
17441;SDS011;8838;50.144;8.176;2023-12-20T12:43:20;14.43;;;2.70;;
17441;SDS011;8838;50.144;8.176;2023-12-20T12:45:48;8.70;;;2.53;;
17441;SDS011;8838;50.144;8.176;2023-12-20T12:48:15;10.83;;;2.53;;
17441;SDS011;8838;50.144;8.176;2023-12-20T12:50:43;8.53;;;2.10;;
17441;SDS011;8838;50.144;8.176;2023-12-20T12:53:14;8.70;;;2.10;;
17441;SDS011;8838;50.144;8.176;2023-12-20T12:55:43;10.10;;;2.57;;
17441;SDS011;8838;50.144;8.176;2023-12-20T12:58:13;9.83;;;2.33;;
17441;SDS011;8838;50.144;8.176;2023-12-20T13:00:41;11.53;;;2.20;;
17441;SDS011;8838;50.144;8.176;2023-12-20T13:03:09;11.07;;;2.30;;
17441;SDS011;8838;50.144;8.176;2023-12-20T13:05:36;6.20;;;2.10;;
17441;SDS011;8838;50.144;8.176;2023-12-20T13:08:07;6.47;;;2.17;;
17441;SDS011;8838;50.144;8.176;2023-12-20T13:10:40;10.73;;;2.70;;
17441;SDS011;8838;50.144;8.176;2023-12-20T13:13:07;11.80;;;2.60;;
17441;SDS011;8838;50.144;8.176;2023-12-20T13:15:35;10.30;;;2.30;;
17441;SDS011;8838;50.144;8.176;2023-12-20T13:18:02;11.90;;;2.40;;
17441;SDS011;8838;50.144;8.176;2023-12-20T13:20:33;11.20;;;2.47;;
17441;SDS011;8838;50.144;8.176;2023-12-20T13:23:00;9.10;;;2.50;;
17441;SDS011;8838;50.144;8.176;2023-12-20T13:25:28;8.13;;;2.33;;
17441;SDS011;8838;50.144;8.176;2023-12-20T13:27:58;9.77;;;2.60;;
17441;SDS011;8838;50.144;8.176;2023-12-20T13:30:26;6.83;;;2.20;;
17441;SDS011;8838;50.144;8.176;2023-12-20T13:32:53;7.57;;;2.00;;
17441;SDS011;8838;50.144;8.176;2023-12-20T13:35:21;6.33;;;2.10;;
17441;SDS011;8838;50.144;8.176;2023-12-20T13:37:48;9.40;;;2.17;;
17441;SDS011;8838;50.144;8.176;2023-12-20T13:40:16;8.33;;;2.40;;
17441;SDS011;8838;50.144;8.176;2023-12-20T13:42:44;7.97;;;2.13;;
17441;SDS011;8838;50.144;8.176;2023-12-20T13:45:15;7.93;;;2.20;;
17441;SDS011;8838;50.144;8.176;2023-12-20T13:47:43;7.73;;;2.13;;
17441;SDS011;8838;50.144;8.176;2023-12-20T13:50:10;8.03;;;2.20;;
17441;SDS011;8838;50.144;8.176;2023-12-20T13:52:37;8.90;;;2.00;;
17441;SDS011;8838;50.144;8.176;2023-12-20T13:55:05;10.77;;;2.07;;
17441;SDS011;8838;50.144;8.176;2023-12-20T13:57:35;6.23;;;1.90;;
17441;SDS011;8838;50.144;8.176;2023-12-20T14:00:06;6.33;;;2.00;;
17441;SDS011;8838;50.144;8.176;2023-12-20T14:02:41;5.97;;;2.03;;
17441;SDS011;8838;50.144;8.176;2023-12-20T14:05:09;5.13;;;1.63;;
17441;SDS011;8838;50.144;8.176;2023-12-20T14:07:36;7.23;;;1.80;;
17441;SDS011;8838;50.144;8.176;2023-12-20T14:10:05;7.60;;;2.17;;
17441;SDS011;8838;50.144;8.176;2023-12-20T14:12:33;9.37;;;1.57;;
17441;SDS011;8838;50.144;8.176;2023-12-20T14:15:01;10.93;;;1.97;;
17441;SDS011;8838;50.144;8.176;2023-12-20T14:17:29;8.53;;;1.73;;
17441;SDS011;8838;50.144;8.176;2023-12-20T14:19:59;6.67;;;1.53;;
17441;SDS011;8838;50.144;8.176;2023-12-20T14:22:27;7.70;;;1.60;;
17441;SDS011;8838;50.144;8.176;2023-12-20T14:24:56;6.30;;;1.50;;
17441;SDS011;8838;50.144;8.176;2023-12-20T14:27:24;4.67;;;1.43;;
17441;SDS011;8838;50.144;8.176;2023-12-20T14:29:52;6.13;;;1.30;;
17441;SDS011;8838;50.144;8.176;2023-12-20T14:32:20;6.20;;;1.50;;
17441;SDS011;8838;50.144;8.176;2023-12-20T14:34:47;4.37;;;1.43;;
17441;SDS011;8838;50.144;8.176;2023-12-20T14:37:16;9.47;;;1.90;;
17441;SDS011;8838;50.144;8.176;2023-12-20T14:39:43;4.87;;;1.70;;
17441;SDS011;8838;50.144;8.176;2023-12-20T14:42:11;5.97;;;1.67;;
17441;SDS011;8838;50.144;8.176;2023-12-20T14:44:39;7.30;;;1.70;;
17441;SDS011;8838;50.144;8.176;2023-12-20T14:47:06;4.93;;;1.60;;
17441;SDS011;8838;50.144;8.176;2023-12-20T14:49:34;9.33;;;1.80;;
17441;SDS011;8838;50.144;8.176;2023-12-20T14:52:02;7.87;;;1.77;;
17441;SDS011;8838;50.144;8.176;2023-12-20T14:54:32;3.97;;;1.50;;
17441;SDS011;8838;50.144;8.176;2023-12-20T14:57:00;7.50;;;1.77;;
17441;SDS011;8838;50.144;8.176;2023-12-20T14:59:30;8.63;;;2.07;;
17441;SDS011;8838;50.144;8.176;2023-12-20T15:01:58;9.70;;;2.00;;
17441;SDS011;8838;50.144;8.176;2023-12-20T15:04:29;7.60;;;1.70;;
17441;SDS011;8838;50.144;8.176;2023-12-20T15:06:58;10.30;;;2.00;;